createdAt,value
2018-09-14T00:00:00.092Z,976.56
2018-09-14T00:01:10.222Z,976.52
2018-09-14T00:02:20.351Z,976.52
2018-09-14T00:03:30.218Z,976.52
2018-09-14T00:04:40.123Z,976.54
2018-09-14T00:05:49.996Z,976.54
2018-09-14T00:07:00.117Z,976.53
2018-09-14T00:08:09.424Z,976.49
2018-09-14T00:09:19.269Z,976.53
2018-09-14T00:10:29.124Z,976.54
2018-09-14T00:11:39.249Z,976.56
2018-09-14T00:12:49.118Z,976.56
2018-09-14T00:13:58.980Z,976.55
2018-09-14T00:15:08.556Z,976.57
2018-09-14T00:16:18.191Z,976.56
2018-09-14T00:17:28.049Z,976.55
2018-09-14T00:18:37.898Z,976.53
2018-09-14T00:19:47.758Z,976.57
2018-09-14T00:20:57.887Z,976.55
2018-09-14T00:22:07.751Z,976.6
2018-09-14T00:23:17.052Z,976.63
2018-09-14T00:24:26.630Z,976.58
2018-09-14T00:25:36.491Z,976.66
2018-09-14T00:26:46.623Z,976.67
2018-09-14T00:27:56.523Z,976.64
2018-09-14T00:29:06.379Z,976.69
2018-09-14T00:30:16.238Z,976.7
2018-09-14T00:31:26.367Z,976.65
2018-09-14T00:32:36.225Z,976.69
2018-09-14T00:33:46.125Z,976.72
2018-09-14T00:34:56.247Z,976.68
2018-09-14T00:36:06.097Z,976.74
2018-09-14T00:37:16.223Z,976.71
2018-09-14T00:38:26.354Z,976.68
2018-09-14T00:39:36.529Z,976.67
2018-09-14T00:40:46.666Z,976.7
2018-09-14T00:41:56.522Z,976.67
2018-09-14T00:43:06.384Z,976.65
2018-09-14T00:44:16.515Z,976.65
2018-09-14T00:45:26.700Z,976.64
2018-09-14T00:46:36.554Z,976.63
2018-09-14T00:47:46.682Z,976.66
2018-09-14T00:48:56.807Z,976.66
2018-09-14T00:50:06.401Z,976.6
2018-09-14T00:51:16.305Z,976.61
2018-09-14T00:52:25.884Z,976.58
2018-09-14T00:53:36.023Z,976.53
2018-09-14T00:54:45.607Z,976.54
2018-09-14T00:55:55.459Z,976.55
2018-09-14T00:57:05.365Z,976.61
2018-09-14T00:58:15.222Z,976.57
2018-09-14T00:59:25.348Z,976.6
2018-09-14T01:00:35.199Z,976.57
2018-09-14T01:01:45.048Z,976.6
2018-09-14T01:02:54.951Z,976.61
2018-09-14T01:04:04.816Z,976.61
2018-09-14T01:05:14.670Z,976.6
2018-09-14T01:06:24.518Z,976.61
2018-09-14T01:07:34.425Z,976.61
2018-09-14T01:08:44.607Z,976.62
2018-09-14T01:09:54.459Z,976.65
2018-09-14T01:11:04.371Z,976.65
2018-09-14T01:12:14.493Z,976.61
2018-09-14T01:13:24.345Z,976.63
2018-09-14T01:14:34.529Z,976.6
2018-09-14T01:15:44.386Z,976.58
2018-09-14T01:16:54.520Z,976.57
2018-09-14T01:18:04.406Z,976.53
2018-09-14T01:19:14.544Z,976.59
2018-09-14T01:20:24.721Z,976.5
2018-09-14T01:21:34.866Z,976.54
2018-09-14T01:22:44.997Z,976.52
2018-09-14T01:23:55.134Z,976.57
2018-09-14T01:25:05.269Z,976.6
2018-09-14T01:26:15.171Z,976.62
2018-09-14T01:27:25.022Z,976.65
2018-09-14T01:28:35.143Z,976.62
2018-09-14T01:29:45.271Z,976.6
2018-09-14T01:30:55.407Z,976.57
2018-09-14T01:32:05.034Z,976.52
2018-09-14T01:33:14.610Z,976.52
2018-09-14T01:34:24.737Z,976.5
2018-09-14T01:35:34.868Z,976.46
2018-09-14T01:36:44.992Z,976.47
2018-09-14T01:37:54.894Z,976.43
2018-09-14T01:39:05.024Z,976.48
2018-09-14T01:40:14.876Z,976.51
2018-09-14T01:41:25.008Z,976.48
2018-09-14T01:42:35.141Z,976.49
2018-09-14T01:43:45.371Z,976.4
2018-09-14T01:44:55.234Z,976.39
2018-09-14T01:46:05.098Z,976.42
2018-09-14T01:47:15.235Z,976.36
2018-09-14T01:48:25.160Z,976.33
2018-09-14T01:49:35.142Z,976.3
2018-09-14T01:50:45.350Z,976.29
2018-09-14T01:51:55.563Z,976.21
2018-09-14T01:53:05.774Z,976.23
2018-09-14T01:54:15.704Z,976.17
2018-09-14T01:55:26.215Z,976.15
2018-09-14T01:56:36.423Z,976.11
2018-09-14T01:57:46.353Z,976.08
2018-09-14T01:58:56.008Z,976.08
2018-09-14T02:00:06.218Z,976.09
2018-09-14T02:01:15.918Z,976.2
2018-09-14T02:02:26.144Z,976.12
2018-09-14T02:03:36.353Z,976.14
2018-09-14T02:04:46.569Z,976.19
2018-09-14T02:05:56.777Z,976.19
2018-09-14T02:07:06.988Z,976.25
2018-09-14T02:08:16.638Z,976.22
2018-09-14T02:09:26.008Z,976.22
2018-09-14T02:10:35.934Z,976.27
2018-09-14T02:11:45.588Z,976.21
2018-09-14T02:12:55.569Z,976.26
2018-09-14T02:14:05.777Z,976.28
2018-09-14T02:15:15.984Z,976.28
2018-09-14T02:16:26.192Z,976.23
2018-09-14T02:17:36.123Z,976.2
2018-09-14T02:18:46.428Z,976.23
2018-09-14T02:19:56.656Z,976.24
2018-09-14T02:21:06.305Z,976.21
2018-09-14T02:22:16.519Z,976.24
2018-09-14T02:23:26.725Z,976.23
2018-09-14T02:24:37.234Z,976.27
2018-09-14T02:25:47.171Z,976.23
2018-09-14T02:26:57.409Z,976.25
2018-09-14T02:28:07.062Z,976.25
2018-09-14T02:29:17.270Z,976.25
2018-09-14T02:30:26.922Z,976.23
2018-09-14T02:31:37.165Z,976.19
2018-09-14T02:32:47.107Z,976.25
2018-09-14T02:33:57.347Z,976.21
2018-09-14T02:35:07.391Z,976.24
2018-09-14T02:36:17.657Z,976.3
2018-09-14T02:37:27.588Z,976.26
2018-09-14T02:38:37.530Z,976.26
2018-09-14T02:39:47.476Z,976.26
2018-09-14T02:40:57.406Z,976.25
2018-09-14T02:42:07.639Z,976.2
2018-09-14T02:43:17.725Z,976.25
2018-09-14T02:44:27.378Z,976.23
2018-09-14T02:45:37.588Z,976.28
2018-09-14T02:46:47.810Z,976.27
2018-09-14T02:48:00.023Z,976.28
2018-09-14T02:49:09.954Z,976.3
2018-09-14T02:50:19.883Z,976.31
2018-09-14T02:51:30.094Z,976.26
2018-09-14T02:52:40.044Z,976.25
2018-09-14T02:53:50.256Z,976.2
2018-09-14T02:55:00.192Z,976.2
2018-09-14T02:56:09.848Z,976.22
2018-09-14T02:57:19.782Z,976.22
2018-09-14T02:58:29.434Z,976.15
2018-09-14T02:59:41.657Z,976.17
2018-09-14T03:00:51.873Z,976.17
2018-09-14T03:02:01.810Z,976.09
2018-09-14T03:03:12.021Z,976.11
2018-09-14T03:04:21.671Z,976.08
2018-09-14T03:05:31.888Z,976.1
2018-09-14T03:06:42.116Z,976.16
2018-09-14T03:07:52.340Z,976.12
2018-09-14T03:09:02.280Z,976.14
2018-09-14T03:10:12.205Z,976.1
2018-09-14T03:11:21.904Z,976.09
2018-09-14T03:12:32.179Z,976.13
2018-09-14T03:13:42.398Z,976.11
2018-09-14T03:14:52.608Z,976.05
2018-09-14T03:16:01.709Z,976.07
2018-09-14T03:17:11.925Z,976.1
2018-09-14T03:18:21.857Z,976.07
2018-09-14T03:19:32.088Z,976.08
2018-09-14T03:20:42.022Z,976.11
2018-09-14T03:21:51.959Z,976.08
2018-09-14T03:23:02.225Z,976.16
2018-09-14T03:24:12.155Z,976.13
2018-09-14T03:25:22.377Z,976.13
2018-09-14T03:26:32.316Z,976.12
2018-09-14T03:27:42.534Z,976.13
2018-09-14T03:28:52.794Z,976.13
2018-09-14T03:30:02.733Z,976.18
2018-09-14T03:31:12.991Z,976.16
2018-09-14T03:32:23.279Z,976.15
2018-09-14T03:33:33.225Z,976.17
2018-09-14T03:34:43.494Z,976.16
2018-09-14T03:35:53.712Z,976.17
2018-09-14T03:37:03.639Z,976.2
2018-09-14T03:38:13.574Z,976.2
2018-09-14T03:39:23.936Z,976.18
2018-09-14T03:40:33.794Z,976.18
2018-09-14T03:41:43.732Z,976.17
2018-09-14T03:42:53.103Z,976.18
2018-09-14T03:44:02.752Z,976.14
2018-09-14T03:45:12.692Z,976.18
2018-09-14T03:46:22.392Z,976.19
2018-09-14T03:47:32.321Z,976.17
2018-09-14T03:48:42.254Z,976.19
2018-09-14T03:49:52.182Z,976.22
2018-09-14T03:51:02.117Z,976.14
2018-09-14T03:52:12.384Z,976.11
2018-09-14T03:53:22.597Z,976.14
2018-09-14T03:54:32.808Z,976.18
2018-09-14T03:55:42.179Z,976.21
2018-09-14T03:56:52.393Z,976.19
2018-09-14T03:58:02.193Z,976.17
2018-09-14T03:59:12.411Z,976.22
2018-09-14T04:00:22.340Z,976.26
2018-09-14T04:01:31.991Z,976.29
2018-09-14T04:02:41.915Z,976.35
2018-09-14T04:03:51.619Z,976.34
2018-09-14T04:05:01.846Z,976.38
2018-09-14T04:06:11.787Z,976.35
2018-09-14T04:07:22.112Z,976.37
2018-09-14T04:08:31.763Z,976.36
2018-09-14T04:09:41.473Z,976.37
2018-09-14T04:10:51.127Z,976.4
2018-09-14T04:12:01.353Z,976.37
2018-09-14T04:13:11.285Z,976.42
2018-09-14T04:14:21.214Z,976.39
2018-09-14T04:15:31.472Z,976.37
2018-09-14T04:16:41.684Z,976.37
2018-09-14T04:17:51.329Z,976.4
2018-09-14T04:19:00.979Z,976.42
2018-09-14T04:20:10.928Z,976.41
2018-09-14T04:21:20.746Z,976.39
2018-09-14T04:22:30.687Z,976.42
2018-09-14T04:23:40.655Z,976.42
2018-09-14T04:24:50.944Z,976.41
2018-09-14T04:26:00.887Z,976.4
2018-09-14T04:27:11.198Z,976.46
2018-09-14T04:28:21.407Z,976.43
2018-09-14T04:29:31.342Z,976.49
2018-09-14T04:30:41.569Z,976.48
2018-09-14T04:31:51.503Z,976.46
2018-09-14T04:33:01.765Z,976.47
2018-09-14T04:34:11.714Z,976.43
2018-09-14T04:35:21.373Z,976.42
2018-09-14T04:36:31.310Z,976.45
2018-09-14T04:37:41.521Z,976.42
2018-09-14T04:38:51.848Z,976.44
2018-09-14T04:40:02.064Z,976.44
2018-09-14T04:41:11.155Z,976.44
2018-09-14T04:42:20.816Z,976.44
2018-09-14T04:43:31.044Z,976.44
2018-09-14T04:44:40.744Z,976.44
2018-09-14T04:45:50.957Z,976.42
2018-09-14T04:47:00.613Z,976.42
2018-09-14T04:48:10.842Z,976.4
2018-09-14T04:49:21.272Z,976.35
2018-09-14T04:50:31.538Z,976.36
2018-09-14T04:51:41.483Z,976.4
2018-09-14T04:52:51.707Z,976.32
2018-09-14T04:54:01.676Z,976.35
2018-09-14T04:55:11.619Z,976.35
2018-09-14T04:56:21.891Z,976.33
2018-09-14T04:57:32.011Z,976.35
2018-09-14T04:58:42.139Z,976.37
2018-09-14T04:59:52.069Z,976.32
2018-09-14T05:01:02.004Z,976.35
2018-09-14T05:02:11.997Z,976.36
2018-09-14T05:03:22.285Z,976.4
2018-09-14T05:04:32.113Z,976.4
2018-09-14T05:05:42.328Z,976.37
2018-09-14T05:06:52.539Z,976.41
2018-09-14T05:08:04.801Z,976.42
2018-09-14T05:09:14.451Z,976.49
2018-09-14T05:10:24.664Z,976.51
2018-09-14T05:11:34.597Z,976.48
2018-09-14T05:12:44.809Z,976.52
2018-09-14T05:13:54.804Z,976.52
2018-09-14T05:15:05.003Z,976.52
2018-09-14T05:16:15.215Z,976.5
2018-09-14T05:17:25.423Z,976.5
2018-09-14T05:18:35.359Z,976.54
2018-09-14T05:19:45.388Z,976.58
2018-09-14T05:20:55.595Z,976.56
2018-09-14T05:22:05.804Z,976.54
2018-09-14T05:23:16.024Z,976.56
2018-09-14T05:24:25.965Z,976.52
2018-09-14T05:25:36.270Z,976.53
2018-09-14T05:26:46.205Z,976.51
2018-09-14T05:27:56.415Z,976.58
2018-09-14T05:29:06.356Z,976.55
2018-09-14T05:30:16.565Z,976.55
2018-09-14T05:31:26.831Z,976.59
2018-09-14T05:32:36.768Z,976.56
2018-09-14T05:33:46.698Z,976.56
2018-09-14T05:34:56.909Z,976.63
2018-09-14T05:36:06.841Z,976.65
2018-09-14T05:37:16.818Z,976.61
2018-09-14T05:38:26.882Z,976.6
2018-09-14T05:39:36.856Z,976.56
2018-09-14T05:40:47.069Z,976.57
2018-09-14T05:41:56.998Z,976.53
2018-09-14T05:43:06.979Z,976.54
2018-09-14T05:44:16.913Z,976.49
2018-09-14T05:45:26.839Z,976.46
2018-09-14T05:46:36.879Z,976.51
2018-09-14T05:47:46.846Z,976.48
2018-09-14T05:48:56.567Z,976.53
2018-09-14T05:50:06.506Z,976.53
2018-09-14T05:51:15.877Z,976.5
2018-09-14T05:52:25.807Z,976.54
2018-09-14T05:53:35.744Z,976.5
2018-09-14T05:54:46.014Z,976.5
2018-09-14T05:55:55.950Z,976.48
2018-09-14T05:57:05.320Z,976.43
2018-09-14T05:58:15.255Z,976.51
2018-09-14T05:59:25.185Z,976.54
2018-09-14T06:00:35.165Z,976.6
2018-09-14T06:01:45.118Z,976.67
2018-09-14T06:02:55.048Z,976.68
2018-09-14T06:04:05.272Z,976.64
2018-09-14T06:05:15.207Z,976.62
2018-09-14T06:06:25.493Z,976.65
2018-09-14T06:07:35.727Z,976.58
2018-09-14T06:08:45.942Z,976.6
2018-09-14T06:09:56.160Z,976.58
2018-09-14T06:11:06.090Z,976.62
2018-09-14T06:12:16.074Z,976.58
2018-09-14T06:13:26.280Z,976.58
2018-09-14T06:14:36.485Z,976.59
2018-09-14T06:15:46.697Z,976.6
2018-09-14T06:16:56.404Z,976.62
2018-09-14T06:18:07.116Z,976.58
2018-09-14T06:19:17.048Z,976.65
2018-09-14T06:20:26.695Z,976.66
2018-09-14T06:21:36.905Z,976.68
2018-09-14T06:22:47.186Z,976.67
2018-09-14T06:23:57.393Z,976.64
2018-09-14T06:25:07.324Z,976.66
2018-09-14T06:26:17.553Z,976.64
2018-09-14T06:27:27.485Z,976.65
2018-09-14T06:28:37.136Z,976.63
2018-09-14T06:29:46.831Z,976.7
2018-09-14T06:30:56.759Z,976.66
2018-09-14T06:32:06.973Z,976.68
2018-09-14T06:33:17.194Z,976.66
2018-09-14T06:34:27.413Z,976.68
2018-09-14T06:35:37.403Z,976.72
2018-09-14T06:36:47.059Z,976.79
2018-09-14T06:37:56.711Z,976.81
2018-09-14T06:39:07.001Z,976.8
2018-09-14T06:40:17.223Z,976.81
2018-09-14T06:41:26.925Z,976.82
2018-09-14T06:42:36.305Z,976.77
2018-09-14T06:43:46.235Z,976.72
2018-09-14T06:44:56.520Z,976.76
2018-09-14T06:46:06.822Z,976.72
2018-09-14T06:47:16.802Z,976.76
2018-09-14T06:48:26.458Z,976.78
2018-09-14T06:49:36.404Z,976.85
2018-09-14T06:50:46.888Z,976.85
2018-09-14T06:51:57.070Z,976.84
2018-09-14T06:53:07.307Z,976.88
2018-09-14T06:54:17.412Z,976.92
2018-09-14T06:55:27.372Z,976.88
2018-09-14T06:56:37.306Z,976.87
2018-09-14T06:57:47.235Z,976.89
2018-09-14T06:58:56.651Z,976.9
2018-09-14T07:00:06.387Z,976.91
2018-09-14T07:01:17.261Z,976.92
2018-09-14T07:02:27.195Z,976.93
2018-09-14T07:03:37.127Z,976.89
2018-09-14T07:04:47.107Z,976.96
2018-09-14T07:05:57.321Z,976.88
2018-09-14T07:07:07.254Z,976.96
2018-09-14T07:08:17.383Z,977.01
2018-09-14T07:09:27.515Z,977.03
2018-09-14T07:10:37.469Z,977.05
2018-09-14T07:11:47.042Z,977.05
2018-09-14T07:12:56.893Z,977.06
2018-09-14T07:14:07.199Z,977.11
2018-09-14T07:15:17.059Z,977.08
2018-09-14T07:16:27.232Z,977.08
2018-09-14T07:17:37.361Z,977.1
2018-09-14T07:18:47.495Z,977.15
2018-09-14T07:19:57.619Z,977.15
2018-09-14T07:21:06.921Z,977.14
2018-09-14T07:22:17.194Z,977.11
2018-09-14T07:23:27.498Z,977.14
2018-09-14T07:24:37.773Z,977.13
2018-09-14T07:25:49.002Z,977.09
2018-09-14T07:26:58.909Z,977.04
2018-09-14T07:28:08.914Z,977.09
2018-09-14T07:29:18.580Z,977.1
2018-09-14T07:30:28.188Z,977.06
2018-09-14T07:31:37.891Z,977.05
2018-09-14T07:32:48.418Z,977.06
2018-09-14T07:33:58.663Z,977.06
2018-09-14T07:35:08.239Z,977.03
2018-09-14T07:36:17.820Z,977.07
2018-09-14T07:37:27.790Z,977.09
2018-09-14T07:38:37.645Z,977.04
2018-09-14T07:39:47.271Z,977.07
2018-09-14T07:40:57.399Z,977.03
2018-09-14T07:42:07.249Z,977.13
2018-09-14T07:43:17.104Z,977.11
2018-09-14T07:44:26.693Z,977.16
2018-09-14T07:45:36.884Z,977.16
2018-09-14T07:46:46.767Z,977.12
2018-09-14T07:47:56.346Z,977.09
2018-09-14T07:49:06.249Z,977.1
2018-09-14T07:50:16.380Z,977.17
2018-09-14T07:51:26.511Z,977.18
2018-09-14T07:52:36.088Z,977.16
2018-09-14T07:53:45.666Z,977.19
2018-09-14T07:54:55.515Z,977.23
2018-09-14T07:56:05.366Z,977.26
2018-09-14T07:57:15.553Z,977.22
2018-09-14T07:58:25.404Z,977.22
2018-09-14T07:59:35.282Z,977.26
2018-09-14T08:00:45.419Z,977.25
2018-09-14T08:01:55.541Z,977.26
2018-09-14T08:03:05.437Z,977.3
2018-09-14T08:04:15.291Z,977.28
2018-09-14T08:05:25.155Z,977.27
2018-09-14T08:06:35.009Z,977.3
2018-09-14T08:07:45.148Z,977.27
2018-09-14T08:08:55.280Z,977.3
2018-09-14T08:10:04.859Z,977.31
2018-09-14T08:11:14.986Z,977.28
2018-09-14T08:12:24.843Z,977.27
2018-09-14T08:13:35.048Z,977.26
2018-09-14T08:14:44.966Z,977.3
2018-09-14T08:15:54.830Z,977.34
2018-09-14T08:17:04.416Z,977.34
2018-09-14T08:18:14.271Z,977.37
2018-09-14T08:19:24.403Z,977.33
2018-09-14T08:20:34.255Z,977.34
2018-09-14T08:21:43.942Z,977.3
2018-09-14T08:22:55.024Z,977.35
2018-09-14T08:24:04.876Z,977.35
2018-09-14T08:25:15.008Z,977.36
2018-09-14T08:26:25.131Z,977.35
2018-09-14T08:27:34.982Z,977.35
2018-09-14T08:28:44.559Z,977.38
2018-09-14T08:29:54.690Z,977.37
2018-09-14T08:31:04.542Z,977.45
2018-09-14T08:32:14.686Z,977.43
2018-09-14T08:33:24.710Z,977.39
2018-09-14T08:34:34.565Z,977.43
2018-09-14T08:35:44.145Z,977.49
2018-09-14T08:36:54.288Z,977.49
2018-09-14T08:38:04.145Z,977.49
2018-09-14T08:39:14.273Z,977.45
2018-09-14T08:40:24.124Z,977.43
2018-09-14T08:41:34.253Z,977.43
2018-09-14T08:42:44.435Z,977.46
2018-09-14T08:43:54.019Z,977.5
2018-09-14T08:45:03.874Z,977.46
2018-09-14T08:46:14.004Z,977.48
2018-09-14T08:47:23.039Z,977.44
2018-09-14T08:48:32.911Z,977.48
2018-09-14T08:49:43.038Z,977.53
2018-09-14T08:50:52.347Z,977.53
2018-09-14T08:52:02.197Z,977.53
2018-09-14T08:53:11.773Z,977.6
2018-09-14T08:54:21.959Z,977.61
2018-09-14T08:55:32.141Z,977.62
2018-09-14T08:56:42.268Z,977.58
2018-09-14T08:57:52.399Z,977.63
2018-09-14T08:59:02.208Z,977.58
2018-09-14T09:00:12.102Z,977.54
2018-09-14T09:01:22.247Z,977.58
2018-09-14T09:02:32.098Z,977.56
2018-09-14T09:03:42.275Z,977.56
2018-09-14T09:04:52.275Z,977.5
2018-09-14T09:06:02.135Z,977.51
2018-09-14T09:07:11.781Z,977.51
2018-09-14T09:08:22.128Z,977.5
2018-09-14T09:09:32.266Z,977.56
2018-09-14T09:10:42.120Z,977.53
2018-09-14T09:11:52.245Z,977.53
2018-09-14T09:13:02.095Z,977.52
2018-09-14T09:14:11.945Z,977.58
2018-09-14T09:15:22.082Z,977.58
2018-09-14T09:16:32.211Z,977.57
2018-09-14T09:17:42.101Z,977.6
2018-09-14T09:18:52.384Z,977.57
2018-09-14T09:20:02.539Z,977.64
2018-09-14T09:21:12.675Z,977.65
2018-09-14T09:22:23.009Z,977.64
2018-09-14T09:23:33.218Z,977.63
2018-09-14T09:24:43.189Z,977.65
2018-09-14T09:25:53.039Z,977.68
2018-09-14T09:27:02.615Z,977.64
2018-09-14T09:28:12.475Z,977.6
2018-09-14T09:29:22.656Z,977.64
2018-09-14T09:30:32.456Z,977.6
2018-09-14T09:31:42.032Z,977.58
2018-09-14T09:32:52.162Z,977.6
2018-09-14T09:34:01.746Z,977.56
2018-09-14T09:35:11.612Z,977.57
2018-09-14T09:36:21.742Z,977.56
2018-09-14T09:37:31.872Z,977.56
2018-09-14T09:38:42.001Z,977.51
2018-09-14T09:39:52.135Z,977.45
2018-09-14T09:41:02.272Z,977.51
2018-09-14T09:42:11.791Z,977.48
2018-09-14T09:43:22.059Z,977.46
2018-09-14T09:44:33.342Z,977.44
2018-09-14T09:45:43.476Z,977.47
2018-09-14T09:46:53.346Z,977.49
2018-09-14T09:48:03.476Z,977.48
2018-09-14T09:49:13.335Z,977.55
2018-09-14T09:50:22.911Z,977.58
2018-09-14T09:51:33.041Z,977.54
2018-09-14T09:52:42.637Z,977.53
2018-09-14T09:53:52.770Z,977.47
2018-09-14T09:55:02.646Z,977.41
2018-09-14T09:56:12.783Z,977.41
2018-09-14T09:57:22.655Z,977.4
2018-09-14T09:58:32.782Z,977.36
2018-09-14T09:59:42.367Z,977.35
2018-09-14T10:00:52.490Z,977.23
2018-09-14T10:02:01.816Z,977.27
2018-09-14T10:03:11.692Z,977.39
2018-09-14T10:04:21.816Z,977.34
2018-09-14T10:05:31.729Z,977.37
2018-09-14T10:06:41.860Z,977.34
2018-09-14T10:07:51.993Z,977.36
2018-09-14T10:09:02.122Z,977.39
2018-09-14T10:10:12.256Z,977.42
2018-09-14T10:11:22.384Z,977.39
2018-09-14T10:12:32.523Z,977.36
2018-09-14T10:13:42.108Z,977.38
2018-09-14T10:14:52.252Z,977.4
2018-09-14T10:16:02.673Z,977.37
2018-09-14T10:17:12.539Z,977.39
2018-09-14T10:18:22.675Z,977.42
2018-09-14T10:19:32.804Z,977.51
2018-09-14T10:20:42.718Z,977.44
2018-09-14T10:21:53.062Z,977.44
2018-09-14T10:23:03.258Z,977.4
2018-09-14T10:24:13.387Z,977.46
2018-09-14T10:25:23.243Z,977.48
2018-09-14T10:26:33.112Z,977.45
2018-09-14T10:27:43.070Z,977.53
2018-09-14T10:28:52.538Z,977.44
2018-09-14T10:30:03.105Z,977.46
2018-09-14T10:31:12.965Z,977.54
2018-09-14T10:32:22.550Z,977.46
2018-09-14T10:33:32.684Z,977.46
2018-09-14T10:34:42.820Z,977.45
2018-09-14T10:35:52.949Z,977.51
2018-09-14T10:37:02.608Z,977.4
2018-09-14T10:38:13.069Z,977.5
2018-09-14T10:39:22.647Z,977.49
2018-09-14T10:40:32.551Z,977.56
2018-09-14T10:41:43.018Z,977.55
2018-09-14T10:42:53.227Z,977.54
2018-09-14T10:44:03.430Z,977.53
2018-09-14T10:45:13.621Z,977.45
2018-09-14T10:46:24.244Z,977.45
2018-09-14T10:47:34.093Z,977.52
2018-09-14T10:48:43.987Z,977.52
2018-09-14T10:49:54.245Z,977.59
2018-09-14T10:51:04.381Z,977.53
2018-09-14T10:52:14.284Z,977.46
2018-09-14T10:53:24.592Z,977.51
2018-09-14T10:54:34.749Z,977.5
2018-09-14T10:55:44.795Z,977.49
2018-09-14T10:56:54.926Z,977.51
2018-09-14T10:58:04.786Z,977.52
2018-09-14T10:59:14.642Z,977.51
2018-09-14T11:00:24.772Z,977.52
2018-09-14T11:01:34.354Z,977.51
2018-09-14T11:02:44.484Z,977.49
2018-09-14T11:03:54.336Z,977.5
2018-09-14T11:05:04.198Z,977.56
2018-09-14T11:06:14.058Z,977.53
2018-09-14T11:07:23.637Z,977.61
2018-09-14T11:08:33.772Z,977.57
2018-09-14T11:09:43.679Z,977.62
2018-09-14T11:10:53.641Z,977.64
2018-09-14T11:12:03.775Z,977.62
2018-09-14T11:13:13.364Z,977.54
2018-09-14T11:14:23.226Z,977.62
2018-09-14T11:15:32.543Z,977.61
2018-09-14T11:16:42.687Z,977.63
2018-09-14T11:17:52.826Z,977.61
2018-09-14T11:19:02.997Z,977.5
2018-09-14T11:20:13.402Z,977.52
2018-09-14T11:21:23.553Z,977.55
2018-09-14T11:22:33.420Z,977.55
2018-09-14T11:23:43.007Z,977.58
2018-09-14T11:24:52.938Z,977.6
2018-09-14T11:26:03.680Z,977.6
2018-09-14T11:27:13.841Z,977.61
2018-09-14T11:28:23.972Z,977.68
2018-09-14T11:29:34.109Z,977.65
2018-09-14T11:30:44.255Z,977.67
2018-09-14T11:31:53.843Z,977.6
2018-09-14T11:33:03.976Z,977.59
2018-09-14T11:34:13.855Z,977.66
2018-09-14T11:35:24.057Z,977.62
2018-09-14T11:36:34.203Z,977.66
2018-09-14T11:37:44.119Z,977.64
2018-09-14T11:38:54.629Z,977.57
2018-09-14T11:40:04.486Z,977.56
2018-09-14T11:41:14.072Z,977.54
2018-09-14T11:42:24.206Z,977.52
2018-09-14T11:43:34.339Z,977.49
2018-09-14T11:44:43.649Z,977.5
2018-09-14T11:45:53.539Z,977.56
2018-09-14T11:47:03.695Z,977.56
2018-09-14T11:48:13.840Z,977.61
2018-09-14T11:49:23.706Z,977.45
2018-09-14T11:50:33.621Z,977.65
2018-09-14T11:51:43.763Z,977.68
2018-09-14T11:52:53.911Z,977.77
2018-09-14T11:54:03.811Z,977.72
2018-09-14T11:55:14.674Z,977.76
2018-09-14T11:56:24.531Z,977.68
2018-09-14T11:57:34.392Z,977.61
2018-09-14T11:58:44.260Z,977.7
2018-09-14T11:59:53.577Z,977.71
2018-09-14T12:01:03.723Z,977.67
2018-09-14T12:02:13.603Z,977.69
2018-09-14T12:03:23.211Z,977.69
2018-09-14T12:04:33.347Z,977.67
2018-09-14T12:05:43.495Z,977.49
2018-09-14T12:06:53.630Z,977.5
2018-09-14T12:08:03.764Z,977.49
2018-09-14T12:09:13.905Z,977.47
2018-09-14T12:10:24.039Z,977.57
2018-09-14T12:11:34.172Z,977.57
2018-09-14T12:12:43.758Z,977.53
2018-09-14T12:13:53.792Z,977.59
2018-09-14T12:15:03.579Z,977.48
2018-09-14T12:16:13.730Z,977.51
2018-09-14T12:17:23.872Z,977.55
2018-09-14T12:18:33.454Z,977.45
2018-09-14T12:19:43.639Z,977.48
2018-09-14T12:20:53.511Z,977.48
2018-09-14T12:22:03.412Z,977.5
2018-09-14T12:23:13.807Z,977.5
2018-09-14T12:24:23.120Z,977.51
2018-09-14T12:25:32.710Z,977.51
2018-09-14T12:26:42.853Z,977.55
2018-09-14T12:27:52.992Z,977.55
2018-09-14T12:29:02.583Z,977.53
2018-09-14T12:30:12.445Z,977.48
2018-09-14T12:31:22.083Z,977.48
2018-09-14T12:32:31.943Z,977.53
2018-09-14T12:33:42.084Z,977.5
2018-09-14T12:34:51.946Z,977.5
2018-09-14T12:36:01.533Z,977.56
2018-09-14T12:37:11.541Z,977.5
2018-09-14T12:38:21.684Z,977.52
2018-09-14T12:39:31.818Z,977.51
2018-09-14T12:40:41.957Z,977.51
2018-09-14T12:41:52.090Z,977.55
2018-09-14T12:43:01.720Z,977.57
2018-09-14T12:44:11.579Z,977.57
2018-09-14T12:45:20.886Z,977.6
2018-09-14T12:46:31.037Z,977.56
2018-09-14T12:47:41.173Z,977.51
2018-09-14T12:48:50.883Z,977.49
2018-09-14T12:50:01.063Z,977.5
2018-09-14T12:51:10.922Z,977.44
2018-09-14T12:52:21.059Z,977.46
2018-09-14T12:53:30.645Z,977.43
2018-09-14T12:54:40.284Z,977.41
2018-09-14T12:55:50.216Z,977.46
2018-09-14T12:57:00.073Z,977.42
2018-09-14T12:58:09.932Z,977.37
2018-09-14T12:59:20.062Z,977.34
2018-09-14T13:00:29.701Z,977.38
2018-09-14T13:01:39.834Z,977.36
2018-09-14T13:02:49.968Z,977.34
2018-09-14T13:03:59.563Z,977.35
2018-09-14T13:05:09.551Z,977.31
2018-09-14T13:06:19.729Z,977.28
2018-09-14T13:07:29.592Z,977.24
2018-09-14T13:08:39.186Z,977.21
2018-09-14T13:09:49.317Z,977.21
2018-09-14T13:10:59.184Z,977.2
2018-09-14T13:12:09.419Z,977.25
2018-09-14T13:13:19.559Z,977.21
2018-09-14T13:14:29.451Z,977.22
2018-09-14T13:15:39.232Z,977.19
2018-09-14T13:16:49.088Z,977.2
2018-09-14T13:17:59.273Z,977.17
2018-09-14T13:19:09.402Z,977.17
2018-09-14T13:20:19.270Z,977.16
2018-09-14T13:21:29.403Z,977.18
2018-09-14T13:22:38.979Z,977.09
2018-09-14T13:23:48.842Z,977.13
2018-09-14T13:24:58.698Z,977.1
2018-09-14T13:26:08.279Z,977.12
2018-09-14T13:27:18.133Z,977.08
2018-09-14T13:28:27.444Z,977.11
2018-09-14T13:29:37.632Z,977.02
2018-09-14T13:30:47.772Z,977.09
2018-09-14T13:31:57.904Z,977.08
2018-09-14T13:33:07.764Z,977.05
2018-09-14T13:34:17.625Z,977.03
2018-09-14T13:35:27.812Z,977.02
2018-09-14T13:36:37.403Z,977.04
2018-09-14T13:37:47.532Z,977.01
2018-09-14T13:38:57.117Z,976.97
2018-09-14T13:40:07.254Z,976.97
2018-09-14T13:41:17.280Z,976.97
2018-09-14T13:42:27.135Z,976.94
2018-09-14T13:43:36.739Z,976.95
2018-09-14T13:44:46.903Z,976.95
2018-09-14T13:45:56.889Z,976.92
2018-09-14T13:47:06.746Z,976.94
2018-09-14T13:48:16.605Z,976.93
2018-09-14T13:49:26.740Z,976.95
2018-09-14T13:50:36.876Z,976.9
2018-09-14T13:51:46.743Z,976.92
2018-09-14T13:52:56.496Z,976.94
2018-09-14T13:54:06.521Z,976.94
2018-09-14T13:55:16.384Z,976.92
2018-09-14T13:56:26.523Z,976.91
2018-09-14T13:57:36.660Z,976.88
2018-09-14T13:58:46.896Z,976.92
2018-09-14T13:59:56.533Z,976.92
2018-09-14T14:01:06.142Z,976.89
2018-09-14T14:02:16.175Z,976.9
2018-09-14T14:03:26.086Z,976.96
2018-09-14T14:04:36.275Z,976.97
2018-09-14T14:05:46.135Z,976.96
2018-09-14T14:06:56.263Z,976.97
2018-09-14T14:08:06.179Z,976.97
2018-09-14T14:09:16.321Z,976.94
2018-09-14T14:10:25.933Z,976.92
2018-09-14T14:11:36.069Z,976.9
2018-09-14T14:12:46.208Z,976.91
2018-09-14T14:13:56.061Z,976.89
2018-09-14T14:15:06.206Z,976.92
2018-09-14T14:16:16.389Z,976.94
2018-09-14T14:17:26.721Z,976.94
2018-09-14T14:18:37.725Z,976.88
2018-09-14T14:19:47.596Z,976.87
2018-09-14T14:20:57.735Z,976.83
2018-09-14T14:22:08.270Z,976.81
2018-09-14T14:23:18.404Z,976.82
2018-09-14T14:24:28.552Z,976.74
2018-09-14T14:25:38.409Z,976.74
2018-09-14T14:26:48.272Z,976.7
2018-09-14T14:27:58.461Z,976.67
2018-09-14T14:29:08.603Z,976.64
2018-09-14T14:30:18.466Z,976.61
2018-09-14T14:31:28.599Z,976.6
2018-09-14T14:32:38.736Z,976.68
2018-09-14T14:33:48.399Z,976.63
2018-09-14T14:34:58.265Z,976.69
2018-09-14T14:36:07.910Z,976.78